createdAt,value
2023-05-13T00:00:33.616Z,94.95
2023-05-13T00:03:01.823Z,94.98
2023-05-13T00:05:29.669Z,95.56
2023-05-13T00:07:57.285Z,95.94
2023-05-13T00:10:25.159Z,95.44
2023-05-13T00:12:53.073Z,95.34
2023-05-13T00:15:20.687Z,95.39
2023-05-13T00:17:48.926Z,95.51
2023-05-13T00:20:16.646Z,95.50
2023-05-13T00:22:44.333Z,95.96
2023-05-13T00:25:12.330Z,95.05
2023-05-13T00:27:39.952Z,95.66
2023-05-13T00:30:08.211Z,94.83
2023-05-13T00:32:36.271Z,94.45
2023-05-13T00:35:04.178Z,94.76
2023-05-13T00:37:31.903Z,93.49
2023-05-13T00:39:59.988Z,93.48
2023-05-13T00:42:27.988Z,93.87
2023-05-13T00:44:56.341Z,93.53
2023-05-13T00:47:24.361Z,93.49
2023-05-13T00:49:52.250Z,94.54
2023-05-13T00:52:20.011Z,94.50
2023-05-13T00:54:48.045Z,93.35
2023-05-13T00:57:15.678Z,94.44
2023-05-13T00:59:43.643Z,94.67
2023-05-13T01:02:24.979Z,94.13
2023-05-13T01:05:03.308Z,94.08
2023-05-13T01:07:58.402Z,94.69
2023-05-13T01:10:46.182Z,93.98
2023-05-13T01:13:18.475Z,95.31
2023-05-13T01:15:50.253Z,94.11
2023-05-13T01:18:25.673Z,93.72
2023-05-13T01:20:53.369Z,94.50
2023-05-13T01:23:21.541Z,94.39
2023-05-13T01:25:49.328Z,94.93
2023-05-13T01:28:17.333Z,94.67
2023-05-13T01:30:47.628Z,95.17
2023-05-13T01:33:16.671Z,94.85
2023-05-13T01:35:46.042Z,95.10
2023-05-13T01:38:14.645Z,94.25
2023-05-13T01:40:43.407Z,94.02
2023-05-13T01:43:11.124Z,93.68
2023-05-13T01:45:39.200Z,93.65
2023-05-13T01:48:07.063Z,93.98
2023-05-13T01:50:36.777Z,93.89
2023-05-13T01:53:06.073Z,93.54
2023-05-13T01:55:33.654Z,93.34
2023-05-13T01:58:01.394Z,92.85
2023-05-13T02:00:29.860Z,94.20
2023-05-13T02:02:57.822Z,94.96
2023-05-13T02:05:25.624Z,95.25
2023-05-13T02:07:54.092Z,94.25
2023-05-13T02:10:22.377Z,94.29
2023-05-13T02:12:50.632Z,93.89
2023-05-13T02:15:19.222Z,93.97
2023-05-13T02:17:47.140Z,93.28
2023-05-13T02:20:15.058Z,93.56
2023-05-13T02:22:43.036Z,94.71
2023-05-13T02:25:10.847Z,95.28
2023-05-13T02:27:38.491Z,94.24
2023-05-13T02:30:07.028Z,94.95
2023-05-13T02:32:34.914Z,95.38
2023-05-13T02:35:02.651Z,95.58
2023-05-13T02:37:30.680Z,94.68
2023-05-13T02:39:58.591Z,93.51
2023-05-13T02:42:26.265Z,94.29
2023-05-13T02:44:54.211Z,94.51
2023-05-13T02:47:22.529Z,93.98
2023-05-13T02:49:50.701Z,94.32
2023-05-13T02:52:18.655Z,95.08
2023-05-13T02:54:46.334Z,95.00
2023-05-13T02:57:14.076Z,94.66
2023-05-13T02:59:42.430Z,94.21
2023-05-13T03:02:10.098Z,95.03
2023-05-13T03:04:37.762Z,94.74
2023-05-13T03:07:05.801Z,94.31
2023-05-13T03:09:33.511Z,95.03
2023-05-13T03:12:01.280Z,95.83
2023-05-13T03:14:29.259Z,94.90
2023-05-13T03:16:57.480Z,95.69
2023-05-13T03:19:25.181Z,95.18
2023-05-13T03:21:53.041Z,95.08
2023-05-13T03:24:20.926Z,95.21
2023-05-13T03:26:49.518Z,94.46
2023-05-13T03:29:17.515Z,94.44
2023-05-13T03:31:45.674Z,94.88
2023-05-13T03:34:13.685Z,94.11
2023-05-13T03:36:42.058Z,94.45
2023-05-13T03:39:09.705Z,94.53
2023-05-13T03:41:38.489Z,96.21
2023-05-13T03:44:06.487Z,95.18
2023-05-13T03:46:34.429Z,95.19
2023-05-13T03:49:02.985Z,95.38
2023-05-13T03:51:31.201Z,95.56
2023-05-13T03:53:58.928Z,95.28
2023-05-13T03:56:26.565Z,94.80
2023-05-13T03:58:54.897Z,95.58
2023-05-13T04:01:22.533Z,94.79
2023-05-13T04:03:50.599Z,95.50
2023-05-13T04:06:18.262Z,95.50
2023-05-13T04:08:47.521Z,95.00
2023-05-13T04:11:16.680Z,95.90
2023-05-13T04:13:44.698Z,96.57
2023-05-13T04:16:12.296Z,96.17
2023-05-13T04:18:40.271Z,95.46
2023-05-13T04:21:08.288Z,96.98
2023-05-13T04:23:36.019Z,96.72
2023-05-13T04:26:03.952Z,97.76
2023-05-13T04:28:31.980Z,96.67
2023-05-13T04:31:00.292Z,97.94
2023-05-13T04:33:28.286Z,96.12
2023-05-13T04:35:56.234Z,95.72
2023-05-13T04:38:23.927Z,95.22
2023-05-13T04:40:52.383Z,95.31
2023-05-13T04:43:21.515Z,95.46
2023-05-13T04:45:49.837Z,96.71
2023-05-13T04:48:17.761Z,95.63
2023-05-13T04:50:46.665Z,95.98
2023-05-13T04:53:15.164Z,95.92
2023-05-13T04:55:43.111Z,96.69
2023-05-13T04:58:10.709Z,96.59
2023-05-13T05:00:38.308Z,95.92
2023-05-13T05:03:06.303Z,95.90
2023-05-13T05:05:34.322Z,95.74
2023-05-13T05:08:02.282Z,95.87
2023-05-13T05:10:30.282Z,96.05
2023-05-13T05:12:58.014Z,95.33
2023-05-13T05:15:25.829Z,94.67
2023-05-13T05:17:54.381Z,94.67
2023-05-13T05:20:22.441Z,94.45
2023-05-13T05:22:50.787Z,94.37
2023-05-13T05:25:19.037Z,95.13
2023-05-13T05:27:47.827Z,95.24
2023-05-13T05:30:15.670Z,96.31
2023-05-13T05:32:43.967Z,95.66
2023-05-13T05:35:11.846Z,95.36
2023-05-13T05:37:41.300Z,96.16
2023-05-13T05:40:10.370Z,95.67
2023-05-13T05:42:40.448Z,95.51
2023-05-13T05:45:09.078Z,96.26
2023-05-13T05:47:37.387Z,96.27
2023-05-13T05:50:06.175Z,96.14
2023-05-13T05:52:34.516Z,95.77
2023-05-13T05:55:03.758Z,96.53
2023-05-13T05:57:31.550Z,96.00
2023-05-13T05:59:59.245Z,96.84
2023-05-13T06:02:27.438Z,97.00
2023-05-13T06:04:55.627Z,96.96
2023-05-13T06:07:23.296Z,96.94
2023-05-13T06:09:52.775Z,97.10
2023-05-13T06:12:20.793Z,97.12
2023-05-13T06:14:49.108Z,97.08
2023-05-13T06:17:16.718Z,96.93
2023-05-13T06:19:44.767Z,96.65
2023-05-13T06:22:12.549Z,97.05
2023-05-13T06:24:40.274Z,97.06
2023-05-13T06:27:08.331Z,97.05
2023-05-13T06:29:35.962Z,96.69
2023-05-13T06:32:03.820Z,96.83
2023-05-13T06:34:31.752Z,96.73
2023-05-13T06:36:59.750Z,97.57
2023-05-13T06:39:27.386Z,96.86
2023-05-13T06:41:56.112Z,96.19
2023-05-13T06:44:26.237Z,96.04
2023-05-13T06:46:55.679Z,96.32
2023-05-13T06:49:23.611Z,96.38
2023-05-13T06:51:51.467Z,96.28
2023-05-13T06:54:19.367Z,96.15
2023-05-13T06:56:47.029Z,96.57
2023-05-13T06:59:14.720Z,95.82
2023-05-13T07:01:42.734Z,96.63
2023-05-13T07:04:10.479Z,96.01
2023-05-13T07:06:38.255Z,95.55
2023-05-13T07:09:08.464Z,94.76
2023-05-13T07:11:37.009Z,94.50
2023-05-13T07:14:04.639Z,94.63
2023-05-13T07:16:32.587Z,95.22
2023-05-13T07:19:00.311Z,94.16
2023-05-13T07:21:29.338Z,94.20
2023-05-13T07:23:57.269Z,94.23
2023-05-13T07:26:24.852Z,94.30
2023-05-13T07:28:52.472Z,94.37
2023-05-13T07:31:20.576Z,94.73
2023-05-13T07:33:48.432Z,94.75
2023-05-13T07:36:16.151Z,93.98
2023-05-13T07:38:44.025Z,94.19
2023-05-13T07:41:11.709Z,94.46
2023-05-13T07:43:39.245Z,94.00
2023-05-13T07:46:07.188Z,93.50
2023-05-13T07:48:34.827Z,93.42
2023-05-13T07:51:02.472Z,94.50
2023-05-13T07:53:30.346Z,94.09
2023-05-13T07:55:57.880Z,93.66
2023-05-13T07:58:25.468Z,93.06
2023-05-13T08:00:53.322Z,93.34
2023-05-13T08:03:21.281Z,93.87
2023-05-13T08:05:49.525Z,92.42
2023-05-13T08:08:17.276Z,93.52
2023-05-13T08:10:45.442Z,92.34
2023-05-13T08:13:13.049Z,92.77
2023-05-13T08:15:41.179Z,93.11
2023-05-13T08:18:09.139Z,92.32
2023-05-13T08:20:36.832Z,92.17
2023-05-13T08:23:04.464Z,92.48
2023-05-13T08:25:32.424Z,92.31
2023-05-13T08:28:00.130Z,91.93
2023-05-13T08:30:27.956Z,93.53
2023-05-13T08:32:55.906Z,91.41
2023-05-13T08:35:23.881Z,91.63
2023-05-13T08:37:51.858Z,90.69
2023-05-13T08:40:19.829Z,90.79
2023-05-13T08:42:48.159Z,91.06
2023-05-13T08:45:15.918Z,90.99
2023-05-13T08:47:47.837Z,89.05
2023-05-13T08:50:16.323Z,89.24
2023-05-13T08:52:44.311Z,89.92
2023-05-13T08:55:12.702Z,87.98
2023-05-13T08:57:40.384Z,88.82
2023-05-13T09:00:08.823Z,88.47
2023-05-13T09:02:36.541Z,88.04
2023-05-13T09:05:08.025Z,87.60
2023-05-13T09:07:37.325Z,85.61
2023-05-13T09:10:06.301Z,83.39
2023-05-13T09:12:44.449Z,82.23
2023-05-13T09:15:16.700Z,83.40
2023-05-13T09:17:45.586Z,82.39
2023-05-13T09:20:15.370Z,81.24
2023-05-13T09:22:45.867Z,79.03
2023-05-13T09:25:14.767Z,78.78
2023-05-13T09:27:44.292Z,78.88
2023-05-13T09:30:12.275Z,76.56
2023-05-13T09:32:41.087Z,78.23
2023-05-13T09:35:16.005Z,77.78
2023-05-13T09:37:48.025Z,76.58
2023-05-13T09:40:17.029Z,77.82
2023-05-13T09:42:46.136Z,76.36
2023-05-13T09:45:15.220Z,76.95
2023-05-13T09:47:43.500Z,75.54
2023-05-13T09:50:12.158Z,75.93
2023-05-13T09:52:39.769Z,74.27
2023-05-13T09:55:10.725Z,74.78
2023-05-13T09:57:39.458Z,74.52
2023-05-13T10:00:10.921Z,76.12
2023-05-13T10:02:43.882Z,75.95
2023-05-13T10:05:11.726Z,75.37
2023-05-13T10:07:39.536Z,72.93
2023-05-13T10:10:08.312Z,74.40
2023-05-13T10:12:36.361Z,76.50
2023-05-13T10:15:05.655Z,73.01
2023-05-13T10:17:34.057Z,71.98
2023-05-13T10:20:01.996Z,73.27
2023-05-13T10:22:31.084Z,74.28
2023-05-13T10:25:00.053Z,73.75
2023-05-13T10:27:29.882Z,73.89
2023-05-13T10:29:58.411Z,74.73
2023-05-13T10:32:29.097Z,72.30
2023-05-13T10:35:07.638Z,71.67
2023-05-13T10:37:50.359Z,71.83
2023-05-13T10:40:39.794Z,71.38
2023-05-13T10:43:19.415Z,70.28
2023-05-13T10:46:11.601Z,71.50
2023-05-13T10:48:40.421Z,72.07
2023-05-13T10:51:08.192Z,70.54
2023-05-13T10:53:56.162Z,71.17
2023-05-13T10:56:25.727Z,70.77
2023-05-13T10:58:59.070Z,71.12
2023-05-13T11:01:29.197Z,70.38
2023-05-13T11:03:59.374Z,71.65
2023-05-13T11:06:46.903Z,69.89
2023-05-13T11:09:27.712Z,69.28
2023-05-13T11:11:57.662Z,69.88
2023-05-13T11:14:30.690Z,69.86
2023-05-13T11:17:01.336Z,69.92
2023-05-13T11:19:36.721Z,70.08
2023-05-13T11:22:14.305Z,70.64
2023-05-13T11:24:45.329Z,71.35
2023-05-13T11:27:20.806Z,71.23
2023-05-13T11:29:52.830Z,70.46
2023-05-13T11:32:51.833Z,71.93
2023-05-13T11:35:39.796Z,72.04
2023-05-13T11:38:07.706Z,72.43
2023-05-13T11:40:36.058Z,74.17
2023-05-13T11:43:04.798Z,73.09
2023-05-13T11:45:33.118Z,71.43
2023-05-13T11:48:18.609Z,70.70
2023-05-13T11:50:46.972Z,70.00
2023-05-13T11:53:20.062Z,69.20
2023-05-13T11:55:48.567Z,69.55
2023-05-13T11:58:16.170Z,69.26
2023-05-13T12:00:46.318Z,68.93
2023-05-13T12:03:14.605Z,69.64
2023-05-13T12:05:42.525Z,70.54
2023-05-13T12:08:10.394Z,70.43
2023-05-13T12:10:44.664Z,70.74
2023-05-13T12:13:12.618Z,69.44
2023-05-13T12:15:41.380Z,71.79
2023-05-13T12:18:09.118Z,70.81
2023-05-13T12:20:38.031Z,71.27
2023-05-13T12:23:06.159Z,69.98
2023-05-13T12:25:39.870Z,69.42
2023-05-13T12:28:11.351Z,68.91
2023-05-13T12:30:40.859Z,68.49
2023-05-13T12:33:23.358Z,68.11
2023-05-13T12:36:14.732Z,67.17
2023-05-13T12:39:04.938Z,66.48
2023-05-13T12:41:34.550Z,67.37
2023-05-13T12:44:10.390Z,67.44
2023-05-13T12:46:38.184Z,67.46
2023-05-13T12:49:06.283Z,66.57
2023-05-13T12:51:33.974Z,66.71
2023-05-13T12:54:01.603Z,66.12
2023-05-13T12:56:29.528Z,66.66
2023-05-13T12:58:57.671Z,66.05
2023-05-13T13:01:25.382Z,64.31
2023-05-13T13:03:53.613Z,66.11
2023-05-13T13:06:21.386Z,65.42
2023-05-13T13:08:49.084Z,63.83
2023-05-13T13:11:17.293Z,62.15
2023-05-13T13:13:45.705Z,63.72
2023-05-13T13:16:13.417Z,62.18
2023-05-13T13:18:42.348Z,62.24
2023-05-13T13:21:10.393Z,60.67
2023-05-13T13:23:38.012Z,61.88
2023-05-13T13:26:05.897Z,62.75
2023-05-13T13:28:33.817Z,62.68
2023-05-13T13:31:01.406Z,64.94
2023-05-13T13:33:29.246Z,62.85
2023-05-13T13:35:56.993Z,63.85
2023-05-13T13:38:25.063Z,63.08
2023-05-13T13:40:52.875Z,64.47
2023-05-13T13:43:20.545Z,64.03
2023-05-13T13:45:48.258Z,64.72
2023-05-13T13:48:16.246Z,62.37
2023-05-13T13:50:45.423Z,64.89
2023-05-13T13:53:15.124Z,64.24
2023-05-13T13:55:43.277Z,63.84
2023-05-13T13:58:10.972Z,62.23
2023-05-13T14:00:39.219Z,64.10
2023-05-13T14:03:07.273Z,66.20
2023-05-13T14:05:34.990Z,65.23
2023-05-13T14:08:02.561Z,66.17
2023-05-13T14:10:30.417Z,68.34
2023-05-13T14:12:58.076Z,67.04
2023-05-13T14:15:25.797Z,65.88
2023-05-13T14:17:53.659Z,66.48
2023-05-13T14:20:21.692Z,67.38
2023-05-13T14:22:49.613Z,68.55
2023-05-13T14:25:17.588Z,68.82
2023-05-13T14:27:45.179Z,68.09
2023-05-13T14:30:13.038Z,67.16
2023-05-13T14:32:41.982Z,68.36
2023-05-13T14:35:09.817Z,69.24
2023-05-13T14:37:37.531Z,69.44
2023-05-13T14:40:05.989Z,70.16
2023-05-13T14:42:33.651Z,69.80
2023-05-13T14:45:01.347Z,70.47
2023-05-13T14:47:32.070Z,69.98
2023-05-13T14:49:59.926Z,69.71
2023-05-13T14:52:27.515Z,69.62
2023-05-13T14:54:55.416Z,68.85
2023-05-13T14:57:23.165Z,68.33
2023-05-13T14:59:50.959Z,71.01
2023-05-13T15:02:18.962Z,70.22
2023-05-13T15:04:46.888Z,70.27
2023-05-13T15:07:14.645Z,69.79
2023-05-13T15:09:42.606Z,70.86
2023-05-13T15:12:10.294Z,70.12
2023-05-13T15:14:37.973Z,70.42
2023-05-13T15:17:06.163Z,70.76
2023-05-13T15:19:34.130Z,71.45
2023-05-13T15:22:01.738Z,69.61
2023-05-13T15:24:30.446Z,70.44
2023-05-13T15:26:58.135Z,70.40
2023-05-13T15:29:25.865Z,70.19
2023-05-13T15:31:53.776Z,71.14
2023-05-13T15:34:21.369Z,69.88
2023-05-13T15:36:49.130Z,69.84
2023-05-13T15:39:17.232Z,68.73
2023-05-13T15:41:45.040Z,69.02
2023-05-13T15:44:12.659Z,68.61
2023-05-13T15:46:41.135Z,69.44
2023-05-13T15:49:08.790Z,69.77
2023-05-13T15:51:36.383Z,69.36
2023-05-13T15:54:04.380Z,69.83
2023-05-13T15:56:31.996Z,69.69
2023-05-13T15:58:59.697Z,70.06
2023-05-13T16:01:27.714Z,70.15
2023-05-13T16:03:55.777Z,70.25
2023-05-13T16:06:23.540Z,70.60
2023-05-13T16:08:51.858Z,70.60
2023-05-13T16:11:20.796Z,70.65
2023-05-13T16:13:48.363Z,69.95
2023-05-13T16:16:16.006Z,71.20
2023-05-13T16:18:43.955Z,71.09
2023-05-13T16:21:11.633Z,71.34
2023-05-13T16:23:39.334Z,71.07
2023-05-13T16:26:07.532Z,71.56
2023-05-13T16:28:35.492Z,71.37
2023-05-13T16:31:03.263Z,71.62
2023-05-13T16:33:31.225Z,72.08
2023-05-13T16:35:58.882Z,72.29
2023-05-13T16:38:26.556Z,71.49
2023-05-13T16:40:54.490Z,70.70
2023-05-13T16:43:22.173Z,69.78
2023-05-13T16:45:59.046Z,71.68
2023-05-13T16:48:26.979Z,71.83
2023-05-13T16:50:54.674Z,71.07
2023-05-13T16:53:22.452Z,71.18
2023-05-13T16:55:50.591Z,70.45
2023-05-13T16:58:18.442Z,71.02
2023-05-13T17:00:46.110Z,71.70
2023-05-13T17:03:14.264Z,70.92
2023-05-13T17:05:42.085Z,71.30
2023-05-13T17:08:09.902Z,71.53
2023-05-13T17:10:37.964Z,72.21
2023-05-13T17:13:05.583Z,71.71
2023-05-13T17:15:33.268Z,71.57
2023-05-13T17:18:01.315Z,71.66
2023-05-13T17:20:31.643Z,72.51
2023-05-13T17:22:59.513Z,72.92
2023-05-13T17:25:27.576Z,73.21
2023-05-13T17:27:55.264Z,73.35
2023-05-13T17:30:23.370Z,73.65
2023-05-13T17:32:52.172Z,73.47
2023-05-13T17:35:20.037Z,73.94
2023-05-13T17:37:47.665Z,74.31
2023-05-13T17:40:15.667Z,74.55
2023-05-13T17:42:43.360Z,75.13
2023-05-13T17:45:11.281Z,75.50
2023-05-13T17:47:39.296Z,76.43
2023-05-13T17:50:07.277Z,76.06
2023-05-13T17:52:35.794Z,76.85
2023-05-13T17:55:05.855Z,77.95
2023-05-13T17:57:33.491Z,77.87
2023-05-13T18:00:01.070Z,77.99
2023-05-13T18:02:33.463Z,78.24
2023-05-13T18:05:01.917Z,79.50
2023-05-13T18:07:29.699Z,78.96
2023-05-13T18:09:57.368Z,79.22
2023-05-13T18:12:25.716Z,80.25
2023-05-13T18:14:53.269Z,79.99
2023-05-13T18:17:20.968Z,80.61
2023-05-13T18:19:51.825Z,79.47
2023-05-13T18:22:19.448Z,80.17
2023-05-13T18:24:47.188Z,80.25
2023-05-13T18:27:15.095Z,80.27
2023-05-13T18:29:42.782Z,80.96
2023-05-13T18:32:10.523Z,80.75
2023-05-13T18:34:38.558Z,81.63
2023-05-13T18:37:06.364Z,81.51
2023-05-13T18:39:34.028Z,81.66
2023-05-13T18:42:02.002Z,82.87
2023-05-13T18:44:32.589Z,81.86
2023-05-13T18:47:00.162Z,82.30
2023-05-13T18:49:28.089Z,82.60
2023-05-13T18:51:55.694Z,82.08
2023-05-13T18:54:23.361Z,82.67
2023-05-13T18:56:51.540Z,82.91
2023-05-13T18:59:19.358Z,82.55
2023-05-13T19:01:47.238Z,82.47
2023-05-13T19:04:15.404Z,82.12
2023-05-13T19:06:43.345Z,82.17
2023-05-13T19:09:10.977Z,83.02
2023-05-13T19:11:39.127Z,82.76
2023-05-13T19:14:06.847Z,82.44
2023-05-13T19:16:34.595Z,82.70
2023-05-13T19:19:02.704Z,83.10
2023-05-13T19:21:30.448Z,82.14
2023-05-13T19:23:58.072Z,83.17
2023-05-13T19:26:25.932Z,83.51
2023-05-13T19:28:53.835Z,82.14
2023-05-13T19:31:21.519Z,83.94
2023-05-13T19:33:49.959Z,83.23
2023-05-13T19:36:17.627Z,82.88
2023-05-13T19:38:45.278Z,83.49
2023-05-13T19:41:13.271Z,83.60
2023-05-13T19:43:40.893Z,83.74
2023-05-13T19:46:08.620Z,84.30
2023-05-13T19:48:36.558Z,83.98
2023-05-13T19:51:04.272Z,84.09
2023-05-13T19:53:31.855Z,84.27
2023-05-13T19:55:59.961Z,84.08
2023-05-13T19:58:27.529Z,84.65
2023-05-13T20:00:55.087Z,83.95
2023-05-13T20:03:23.109Z,84.28
2023-05-13T20:05:51.158Z,83.80
2023-05-13T20:08:19.456Z,84.12
2023-05-13T20:10:47.470Z,84.37
2023-05-13T20:13:15.074Z,84.30
2023-05-13T20:15:42.726Z,84.49
2023-05-13T20:18:10.761Z,83.81
2023-05-13T20:20:38.448Z,84.13
2023-05-13T20:23:06.023Z,83.88
2023-05-13T20:25:34.059Z,83.51
2023-05-13T20:28:01.788Z,83.78
2023-05-13T20:30:42.421Z,83.56
2023-05-13T20:33:10.520Z,84.04
2023-05-13T20:35:38.150Z,83.76
2023-05-13T20:38:05.832Z,84.49
2023-05-13T20:40:33.688Z,84.52
2023-05-13T20:43:01.465Z,84.39
2023-05-13T20:45:32.170Z,83.95
2023-05-13T20:48:00.010Z,84.65
2023-05-13T20:50:28.320Z,84.65
2023-05-13T20:52:56.023Z,84.70
2023-05-13T20:55:23.979Z,85.13
2023-05-13T20:57:52.132Z,85.17
2023-05-13T21:00:20.431Z,84.01
2023-05-13T21:02:48.436Z,83.45
2023-05-13T21:05:16.062Z,84.07
2023-05-13T21:07:43.706Z,84.33
2023-05-13T21:10:11.629Z,84.71
2023-05-13T21:12:39.242Z,85.21
2023-05-13T21:15:07.495Z,85.63
2023-05-13T21:17:35.528Z,85.51
2023-05-13T21:20:03.409Z,84.79
2023-05-13T21:22:31.692Z,85.04
2023-05-13T21:24:59.596Z,85.00
2023-05-13T21:27:27.243Z,84.75
2023-05-13T21:29:54.813Z,84.73
2023-05-13T21:32:22.885Z,84.42
2023-05-13T21:34:50.652Z,84.63
2023-05-13T21:37:18.394Z,84.79
2023-05-13T21:39:46.311Z,84.90
2023-05-13T21:42:14.008Z,84.78
2023-05-13T21:44:41.588Z,85.09
2023-05-13T21:47:09.674Z,84.25
2023-05-13T21:49:37.351Z,84.51
2023-05-13T21:52:05.316Z,84.52
2023-05-13T21:54:33.276Z,84.09
2023-05-13T21:57:01.273Z,84.16
2023-05-13T21:59:28.935Z,83.90
2023-05-13T22:01:56.996Z,84.21
2023-05-13T22:04:26.490Z,83.11
2023-05-13T22:06:54.523Z,83.41
2023-05-13T22:09:22.089Z,83.52
2023-05-13T22:11:50.209Z,83.93
2023-05-13T22:14:17.930Z,84.49
2023-05-13T22:16:51.889Z,83.43
2023-05-13T22:19:25.627Z,83.83
2023-05-13T22:21:53.213Z,83.23
2023-05-13T22:24:20.926Z,83.20
2023-05-13T22:26:48.823Z,82.50
2023-05-13T22:29:16.429Z,82.28
2023-05-13T22:31:44.097Z,82.83
2023-05-13T22:34:12.046Z,81.95
2023-05-13T22:36:41.167Z,82.49
2023-05-13T22:39:10.117Z,83.10
2023-05-13T22:41:38.107Z,82.94
2023-05-13T22:44:05.799Z,82.79
2023-05-13T22:46:33.477Z,83.02
2023-05-13T22:49:01.363Z,83.07
2023-05-13T22:51:29.000Z,82.59
2023-05-13T22:53:56.609Z,82.52
2023-05-13T22:56:24.510Z,82.15
2023-05-13T22:58:52.713Z,81.95
2023-05-13T23:01:20.657Z,82.74
2023-05-13T23:03:48.674Z,82.69
2023-05-13T23:06:16.406Z,82.19
2023-05-13T23:08:44.026Z,82.54
2023-05-13T23:11:11.863Z,83.24
2023-05-13T23:13:39.579Z,82.67
2023-05-13T23:16:07.340Z,81.75
2023-05-13T23:18:35.335Z,82.21
2023-05-13T23:21:02.986Z,82.25
2023-05-13T23:23:30.653Z,82.08
2023-05-13T23:25:58.569Z,82.38
2023-05-13T23:28:26.155Z,81.85
2023-05-13T23:30:53.756Z,81.98
2023-05-13T23:33:21.622Z,81.39
2023-05-13T23:35:55.749Z,82.04
2023-05-13T23:38:23.697Z,81.56
2023-05-13T23:40:51.578Z,81.38
2023-05-13T23:43:19.274Z,81.96
2023-05-13T23:45:47.171Z,81.35
2023-05-13T23:48:14.758Z,82.29
2023-05-13T23:50:42.355Z,82.02
2023-05-13T23:53:10.231Z,81.17
2023-05-13T23:55:37.919Z,80.88
2023-05-13T23:58:05.527Z,81.22
